createdAt,value
2022-09-03T00:00:12.282Z,2.55
2022-09-03T00:05:40.276Z,2.58
2022-09-03T00:08:23.364Z,2.30
2022-09-03T00:11:03.370Z,2.60
2022-09-03T00:13:43.026Z,2.50
2022-09-03T00:16:18.507Z,2.80
2022-09-03T00:18:57.419Z,3.05
2022-09-03T00:21:41.028Z,2.40
2022-09-03T00:24:15.228Z,2.40
2022-09-03T00:26:46.848Z,2.45
2022-09-03T00:30:04.220Z,2.53
2022-09-03T00:32:37.873Z,2.40
2022-09-03T00:35:11.800Z,2.70
2022-09-03T00:37:42.081Z,2.95
2022-09-03T00:40:19.751Z,2.90
2022-09-03T00:42:59.554Z,3.38
2022-09-03T00:45:44.441Z,2.75
2022-09-03T00:48:48.468Z,2.50
2022-09-03T00:51:55.086Z,2.63
2022-09-03T00:54:41.837Z,3.03
2022-09-03T00:57:27.332Z,3.10
2022-09-03T01:00:03.885Z,2.60
2022-09-03T01:02:46.908Z,2.42
2022-09-03T01:05:45.108Z,3.30
2022-09-03T01:08:33.714Z,2.67
2022-09-03T01:11:27.477Z,2.65
2022-09-03T01:14:28.919Z,2.60
2022-09-03T01:17:12.711Z,3.03
2022-09-03T01:19:59.982Z,2.88
2022-09-03T01:22:52.512Z,2.47
2022-09-03T01:25:45.967Z,2.40
2022-09-03T01:28:23.907Z,2.83
2022-09-03T01:31:27.452Z,2.53
2022-09-03T01:34:23.510Z,2.63
2022-09-03T01:37:05.998Z,2.63
2022-09-03T01:39:39.310Z,2.45
2022-09-03T01:42:32.618Z,2.20
2022-09-03T01:45:26.125Z,2.53
2022-09-03T01:48:07.117Z,2.78
2022-09-03T01:50:39.568Z,2.60
2022-09-03T01:53:25.728Z,2.50
2022-09-03T01:56:29.864Z,2.47
2022-09-03T01:59:34.910Z,2.40
2022-09-03T02:02:08.785Z,2.88
2022-09-03T02:04:36.800Z,2.47
2022-09-03T02:07:06.033Z,2.30
2022-09-03T02:09:33.406Z,2.45
2022-09-03T02:12:14.040Z,2.40
2022-09-03T02:14:42.476Z,2.38
2022-09-03T02:17:11.262Z,2.45
2022-09-03T02:19:39.469Z,2.72
2022-09-03T02:22:07.329Z,2.63
2022-09-03T02:24:34.722Z,2.35
2022-09-03T02:27:02.501Z,2.10
2022-09-03T02:29:30.968Z,2.42
2022-09-03T02:31:59.121Z,2.45
2022-09-03T02:34:27.519Z,2.42
2022-09-03T02:36:54.735Z,2.47
2022-09-03T02:39:22.510Z,2.65
2022-09-03T02:41:58.882Z,2.53
2022-09-03T02:44:31.917Z,2.42
2022-09-03T02:47:02.759Z,2.15
2022-09-03T02:49:31.371Z,2.13
2022-09-03T02:52:12.411Z,2.15
2022-09-03T02:54:40.501Z,2.17
2022-09-03T02:57:09.783Z,2.83
2022-09-03T02:59:39.023Z,2.38
2022-09-03T03:02:06.478Z,2.47
2022-09-03T03:04:34.055Z,2.33
2022-09-03T03:07:01.622Z,2.40
2022-09-03T03:09:32.568Z,2.38
2022-09-03T03:12:01.851Z,2.28
2022-09-03T03:14:30.657Z,2.17
2022-09-03T03:16:58.045Z,2.40
2022-09-03T03:19:27.285Z,2.42
2022-09-03T03:21:54.619Z,2.35
2022-09-03T03:24:22.007Z,2.33
2022-09-03T03:26:50.884Z,2.30
2022-09-03T03:29:18.621Z,2.50
2022-09-03T03:31:46.263Z,2.25
2022-09-03T03:34:13.864Z,2.45
2022-09-03T03:36:41.572Z,2.40
2022-09-03T03:39:11.300Z,2.30
2022-09-03T03:41:39.018Z,2.45
2022-09-03T03:44:07.951Z,2.30
2022-09-03T03:46:38.753Z,2.30
2022-09-03T03:49:08.181Z,2.65
2022-09-03T03:51:36.403Z,2.20
2022-09-03T03:54:05.500Z,2.50
2022-09-03T03:56:35.020Z,2.55
2022-09-03T03:59:04.291Z,2.10
2022-09-03T04:01:33.569Z,2.35
2022-09-03T04:04:01.029Z,2.30
2022-09-03T04:06:29.834Z,2.20
2022-09-03T04:08:57.573Z,2.35
2022-09-03T04:11:25.709Z,2.30
2022-09-03T04:13:56.959Z,2.88
2022-09-03T04:16:27.283Z,2.92
2022-09-03T04:18:56.388Z,2.55
2022-09-03T04:21:30.281Z,2.78
2022-09-03T04:23:58.750Z,2.70
2022-09-03T04:26:33.046Z,2.60
2022-09-03T04:29:03.380Z,2.33
2022-09-03T04:31:32.390Z,2.80
2022-09-03T04:34:00.122Z,3.10
2022-09-03T04:36:30.001Z,2.72
2022-09-03T04:39:00.269Z,2.38
2022-09-03T04:41:30.877Z,3.80
2022-09-03T04:46:33.913Z,2.63
2022-09-03T04:49:02.521Z,2.70
2022-09-03T04:51:31.688Z,2.67
2022-09-03T04:54:01.511Z,2.78
2022-09-03T04:56:34.088Z,2.90
2022-09-03T04:59:06.979Z,2.85
2022-09-03T05:01:38.828Z,2.72
2022-09-03T05:04:08.048Z,2.47
2022-09-03T05:06:37.273Z,3.28
2022-09-03T05:09:04.736Z,4.88
2022-09-03T05:11:34.109Z,5.88
2022-09-03T05:14:08.568Z,5.00
2022-09-03T05:16:36.426Z,3.00
2022-09-03T05:19:08.197Z,2.75
2022-09-03T05:21:36.680Z,2.40
2022-09-03T05:24:06.145Z,2.92
2022-09-03T05:26:38.432Z,2.78
2022-09-03T05:29:07.954Z,13.05
2022-09-03T05:31:39.308Z,6.47
2022-09-03T05:34:07.920Z,5.50
2022-09-03T05:36:38.599Z,5.00
2022-09-03T05:39:06.660Z,4.25
2022-09-03T05:41:37.384Z,5.25
2022-09-03T05:44:06.467Z,6.38
2022-09-03T05:46:37.583Z,8.18
2022-09-03T05:49:07.242Z,9.90
2022-09-03T05:51:54.092Z,8.45
2022-09-03T05:54:22.575Z,5.93
2022-09-03T05:56:50.091Z,4.05
2022-09-03T05:59:19.306Z,4.50
2022-09-03T06:01:51.453Z,3.67
2022-09-03T06:04:20.216Z,4.28
2022-09-03T06:06:49.335Z,5.20
2022-09-03T06:09:19.679Z,4.95
2022-09-03T06:11:50.785Z,5.03
2022-09-03T06:14:21.238Z,5.63
2022-09-03T06:16:50.280Z,4.70
2022-09-03T06:19:18.660Z,5.45
2022-09-03T06:21:47.224Z,5.57
2022-09-03T06:24:18.036Z,4.97
2022-09-03T06:26:47.109Z,4.88
2022-09-03T06:29:14.852Z,4.65
2022-09-03T06:31:42.371Z,5.03
2022-09-03T06:34:10.627Z,4.65
2022-09-03T06:36:43.658Z,4.10
2022-09-03T06:39:12.299Z,4.18
2022-09-03T06:41:40.272Z,4.53
2022-09-03T06:44:12.140Z,4.15
2022-09-03T06:46:42.896Z,4.28
2022-09-03T06:49:12.381Z,4.25
2022-09-03T06:51:40.038Z,4.00
2022-09-03T06:54:09.591Z,3.90
2022-09-03T06:56:55.398Z,4.28
2022-09-03T06:59:22.801Z,4.32
2022-09-03T07:01:50.737Z,3.90
2022-09-03T07:04:33.627Z,4.40
2022-09-03T07:07:20.865Z,3.50
2022-09-03T07:10:07.324Z,3.63
2022-09-03T07:12:37.806Z,3.88
2022-09-03T07:17:35.196Z,3.55
2022-09-03T07:20:03.039Z,3.35
2022-09-03T07:22:31.727Z,3.65
2022-09-03T07:24:59.478Z,3.15
2022-09-03T07:27:27.744Z,3.70
2022-09-03T07:30:18.373Z,3.45
2022-09-03T07:32:46.720Z,3.60
2022-09-03T07:35:15.757Z,3.13
2022-09-03T07:37:44.926Z,3.42
2022-09-03T07:40:12.329Z,2.83
2022-09-03T07:42:40.525Z,3.00
2022-09-03T07:45:13.350Z,2.83
2022-09-03T07:47:50.354Z,3.13
2022-09-03T07:50:17.769Z,2.88
2022-09-03T07:52:44.993Z,3.00
2022-09-03T07:55:13.968Z,2.90
2022-09-03T07:57:41.420Z,2.90
2022-09-03T08:00:10.808Z,2.40
2022-09-03T08:02:41.969Z,2.70
2022-09-03T08:05:12.896Z,3.22
2022-09-03T08:07:40.272Z,2.63
2022-09-03T08:10:10.327Z,2.70
2022-09-03T08:12:37.549Z,2.83
2022-09-03T08:15:08.029Z,2.75
2022-09-03T08:20:06.648Z,2.50
2022-09-03T08:22:35.432Z,2.45
2022-09-03T08:25:03.844Z,2.28
2022-09-03T08:27:32.463Z,2.33
2022-09-03T08:30:05.880Z,2.67
2022-09-03T08:32:35.708Z,2.33
2022-09-03T08:35:04.543Z,2.55
2022-09-03T08:37:33.389Z,2.65
2022-09-03T08:40:00.889Z,2.30
2022-09-03T08:42:50.482Z,2.70
2022-09-03T08:45:26.010Z,2.77
2022-09-03T08:48:05.928Z,2.47
2022-09-03T08:50:38.830Z,2.58
2022-09-03T08:53:14.141Z,2.35
2022-09-03T08:55:52.218Z,2.67
2022-09-03T08:58:26.592Z,2.50
2022-09-03T09:01:32.098Z,2.63
2022-09-03T09:04:14.705Z,2.55
2022-09-03T09:06:47.857Z,2.50
2022-09-03T09:09:31.468Z,2.40
2022-09-03T09:12:18.720Z,2.40
2022-09-03T09:14:58.659Z,2.20
2022-09-03T09:17:47.654Z,2.30
2022-09-03T09:20:44.969Z,2.40
2022-09-03T09:23:26.977Z,2.78
2022-09-03T09:25:59.034Z,2.50
2022-09-03T09:28:33.437Z,2.38
2022-09-03T09:31:03.356Z,2.53
2022-09-03T09:33:32.480Z,2.35
2022-09-03T09:36:06.715Z,2.35
2022-09-03T09:38:37.089Z,2.67
2022-09-03T09:41:20.403Z,2.72
2022-09-03T09:43:48.398Z,2.72
2022-09-03T09:46:21.867Z,2.50
2022-09-03T09:48:57.819Z,2.97
2022-09-03T09:51:31.568Z,2.60
2022-09-03T09:54:20.250Z,2.92
2022-09-03T09:57:00.211Z,2.30
2022-09-03T09:59:27.640Z,2.63
2022-09-03T10:02:09.541Z,2.50
2022-09-03T10:04:38.029Z,2.85
2022-09-03T10:07:23.136Z,2.20
2022-09-03T10:10:04.890Z,2.35
2022-09-03T10:13:03.911Z,2.50
2022-09-03T10:15:51.352Z,2.50
2022-09-03T10:18:28.913Z,2.55
2022-09-03T10:21:12.773Z,2.53
2022-09-03T10:24:07.892Z,2.55
2022-09-03T10:26:37.425Z,2.85
2022-09-03T10:29:07.297Z,2.50
2022-09-03T10:31:48.921Z,2.42
2022-09-03T10:34:57.466Z,2.63
2022-09-03T10:37:41.307Z,2.75
2022-09-03T10:40:37.240Z,2.60
2022-09-03T10:43:14.957Z,2.47
2022-09-03T10:46:10.483Z,2.33
2022-09-03T10:49:11.774Z,2.60
2022-09-03T10:51:49.535Z,2.40
2022-09-03T10:54:25.673Z,2.60
2022-09-03T10:56:58.512Z,2.90
2022-09-03T10:59:40.085Z,2.50
2022-09-03T11:02:15.534Z,2.58
2022-09-03T11:05:08.144Z,3.03
2022-09-03T11:08:07.238Z,2.95
2022-09-03T11:10:41.178Z,3.20
2022-09-03T11:13:25.734Z,3.08
2022-09-03T11:16:20.353Z,3.47
2022-09-03T11:18:51.963Z,3.08
2022-09-03T11:21:25.709Z,3.28
2022-09-03T11:24:05.699Z,3.45
2022-09-03T11:26:35.490Z,3.15
2022-09-03T11:29:17.091Z,2.90
2022-09-03T11:32:14.372Z,2.83
2022-09-03T11:34:54.832Z,3.22
2022-09-03T11:37:31.280Z,2.83
2022-09-03T11:40:28.449Z,2.95
2022-09-03T11:43:13.028Z,2.88
2022-09-03T11:45:41.143Z,2.58
2022-09-03T11:48:33.653Z,2.53
2022-09-03T11:51:01.017Z,2.22
2022-09-03T11:53:35.468Z,2.72
2022-09-03T11:56:07.880Z,2.42
2022-09-03T11:58:39.723Z,2.92
2022-09-03T12:01:16.093Z,2.35
2022-09-03T12:03:48.893Z,2.50
2022-09-03T12:06:46.936Z,2.38
2022-09-03T12:09:26.411Z,2.50
2022-09-03T12:12:35.381Z,2.50
2022-09-03T12:15:39.297Z,3.27
2022-09-03T12:18:21.954Z,3.10
2022-09-03T12:21:11.001Z,2.85
2022-09-03T12:23:58.097Z,3.10
2022-09-03T12:26:28.222Z,2.80
2022-09-03T12:28:58.503Z,3.05
2022-09-03T12:31:29.815Z,3.08
2022-09-03T12:34:17.334Z,2.63
2022-09-03T12:36:47.892Z,2.90
2022-09-03T12:40:04.519Z,2.70
2022-09-03T12:42:12.784Z,3.00
2022-09-03T12:44:44.586Z,3.28
2022-09-03T12:47:37.367Z,2.80
2022-09-03T12:50:11.664Z,2.88
2022-09-03T12:53:07.819Z,2.85
2022-09-03T12:55:55.022Z,3.10
2022-09-03T12:58:35.780Z,2.78
2022-09-03T13:04:10.289Z,2.60
2022-09-03T13:07:01.474Z,2.85
2022-09-03T13:09:31.769Z,2.65
2022-09-03T13:11:59.402Z,2.50
2022-09-03T13:14:27.794Z,2.97
2022-09-03T13:17:08.035Z,2.55
2022-09-03T13:19:52.337Z,2.60
2022-09-03T13:22:26.037Z,3.13
2022-09-03T13:25:35.707Z,3.83
2022-09-03T13:28:27.747Z,2.95
2022-09-03T13:31:31.104Z,2.80
2022-09-03T13:34:16.148Z,2.70
2022-09-03T13:37:21.777Z,2.88
2022-09-03T13:40:04.782Z,2.65
2022-09-03T13:42:44.200Z,2.58
2022-09-03T13:45:44.525Z,2.67
2022-09-03T13:48:51.693Z,2.45
2022-09-03T13:51:45.217Z,2.92
2022-09-03T13:54:42.456Z,2.53
2022-09-03T13:57:30.076Z,3.00
2022-09-03T14:00:00.930Z,2.60
2022-09-03T14:02:54.580Z,2.58
2022-09-03T14:05:53.716Z,2.60
2022-09-03T14:09:02.615Z,2.60
2022-09-03T14:11:57.386Z,2.63
2022-09-03T14:14:55.456Z,2.60
2022-09-03T14:18:05.205Z,2.60
2022-09-03T14:20:57.231Z,2.38
2022-09-03T14:23:42.309Z,2.53
2022-09-03T14:26:39.490Z,2.28
2022-09-03T14:29:17.246Z,2.22
2022-09-03T14:32:05.280Z,2.40
2022-09-03T14:35:17.347Z,2.17
2022-09-03T14:38:25.984Z,2.38
2022-09-03T14:41:05.972Z,2.17
2022-09-03T14:43:52.518Z,2.00
2022-09-03T14:46:33.494Z,1.98
2022-09-03T14:49:16.177Z,2.10
2022-09-03T14:52:20.179Z,2.33
2022-09-03T14:55:07.354Z,2.10
2022-09-03T14:57:44.155Z,1.92
2022-09-03T15:00:50.922Z,2.10
2022-09-03T15:03:24.116Z,1.80
2022-09-03T15:06:13.028Z,2.15
2022-09-03T15:08:51.341Z,1.90
2022-09-03T15:14:35.744Z,2.53
2022-09-03T15:17:36.923Z,2.00
2022-09-03T15:20:23.119Z,2.13
2022-09-03T15:23:14.162Z,2.33
2022-09-03T15:25:41.776Z,2.40
2022-09-03T15:28:21.332Z,1.70
2022-09-03T15:31:04.548Z,1.88
2022-09-03T15:33:32.838Z,2.20
2022-09-03T15:36:09.272Z,2.00
2022-09-03T15:39:05.972Z,2.30
2022-09-03T15:41:45.438Z,2.00
2022-09-03T15:44:19.507Z,2.22
2022-09-03T15:47:00.952Z,1.70
2022-09-03T15:49:58.630Z,2.78
2022-09-03T15:52:29.136Z,2.20
2022-09-03T15:55:07.808Z,2.00
2022-09-03T15:58:15.555Z,1.88
2022-09-03T16:01:00.302Z,1.80
2022-09-03T16:03:45.629Z,1.90
2022-09-03T16:06:39.151Z,1.80
2022-09-03T16:09:25.901Z,1.85
2022-09-03T16:12:20.953Z,1.70
2022-09-03T16:15:33.938Z,1.75
2022-09-03T16:18:09.536Z,1.52
2022-09-03T16:20:46.620Z,1.70
2022-09-03T16:23:31.319Z,2.10
2022-09-03T16:26:06.113Z,1.88
2022-09-03T16:28:35.191Z,1.70
2022-09-03T16:31:09.882Z,2.03
2022-09-03T16:34:18.636Z,1.52
2022-09-03T16:36:59.286Z,1.90
2022-09-03T16:39:41.915Z,2.05
2022-09-03T16:42:23.986Z,1.88
2022-09-03T16:45:12.405Z,1.70
2022-09-03T16:48:00.727Z,1.60
2022-09-03T16:50:47.269Z,1.70
2022-09-03T16:53:23.654Z,1.90
2022-09-03T16:56:34.415Z,1.70
2022-09-03T16:59:37.875Z,1.90
2022-09-03T17:02:40.498Z,2.50
2022-09-03T17:05:14.213Z,2.20
2022-09-03T17:08:09.618Z,1.80
2022-09-03T17:10:58.252Z,1.80
2022-09-03T17:13:49.151Z,2.03
2022-09-03T17:16:38.301Z,1.83
2022-09-03T17:19:28.212Z,1.95
2022-09-03T17:22:13.296Z,2.20
2022-09-03T17:25:24.049Z,2.10
2022-09-03T17:28:28.848Z,2.00
2022-09-03T17:31:34.097Z,1.73
2022-09-03T17:35:00.806Z,2.20
2022-09-03T17:38:17.825Z,2.20
2022-09-03T17:41:00.453Z,2.60
2022-09-03T17:43:54.187Z,2.20
2022-09-03T17:46:33.865Z,2.50
2022-09-03T17:49:06.582Z,2.50
2022-09-03T17:51:51.674Z,2.40
2022-09-03T17:54:34.828Z,2.33
2022-09-03T17:57:31.145Z,2.75
2022-09-03T18:00:06.125Z,2.70
2022-09-03T18:02:47.379Z,2.70
2022-09-03T18:05:28.128Z,3.70
2022-09-03T18:08:02.084Z,3.60
2022-09-03T18:10:54.139Z,3.50
2022-09-03T18:13:48.687Z,3.53
2022-09-03T18:16:29.825Z,4.28
2022-09-03T18:19:19.482Z,3.80
2022-09-03T18:22:47.208Z,3.55
2022-09-03T18:25:35.513Z,2.97
2022-09-03T18:28:26.174Z,3.30
2022-09-03T18:31:12.317Z,3.80
2022-09-03T18:33:58.338Z,2.95
2022-09-03T18:36:47.159Z,3.22
2022-09-03T18:39:45.267Z,3.50
2022-09-03T18:43:00.591Z,3.03
2022-09-03T18:49:29.753Z,2.88
2022-09-03T18:52:34.155Z,2.90
2022-09-03T18:55:53.451Z,3.00
2022-09-03T18:59:19.653Z,2.75
2022-09-03T19:02:05.525Z,3.15
2022-09-03T19:05:22.397Z,2.78
2022-09-03T19:08:31.916Z,2.70
2022-09-03T19:11:25.148Z,2.85
2022-09-03T19:14:11.454Z,2.70
2022-09-03T19:17:26.444Z,2.90
2022-09-03T19:20:24.221Z,2.70
2022-09-03T19:23:10.498Z,2.58
2022-09-03T19:25:56.888Z,2.58
2022-09-03T19:28:44.759Z,2.55
2022-09-03T19:32:04.595Z,2.92
2022-09-03T19:35:12.498Z,3.10
2022-09-03T19:38:26.198Z,2.80
2022-09-03T19:41:20.365Z,2.63
2022-09-03T19:44:19.175Z,3.00
2022-09-03T19:47:10.942Z,2.63
2022-09-03T19:50:08.967Z,2.50
2022-09-03T19:53:14.705Z,3.05
2022-09-03T19:56:11.244Z,2.45
2022-09-03T19:59:02.856Z,2.35
2022-09-03T20:01:56.276Z,2.70
2022-09-03T20:05:07.489Z,3.10
2022-09-03T20:07:55.603Z,2.90
2022-09-03T20:10:24.565Z,2.75
2022-09-03T20:12:59.343Z,2.95
2022-09-03T20:15:46.450Z,3.03
2022-09-03T20:18:14.832Z,2.53
2022-09-03T20:21:16.945Z,3.35
2022-09-03T20:24:43.577Z,2.78
2022-09-03T20:27:28.227Z,2.80
2022-09-03T20:30:02.934Z,2.90
2022-09-03T20:32:54.990Z,2.70
2022-09-03T20:35:43.759Z,2.70
2022-09-03T20:38:14.841Z,2.40
2022-09-03T20:40:49.647Z,2.85
2022-09-03T20:43:44.717Z,2.50
2022-09-03T20:46:35.131Z,3.10
2022-09-03T20:52:08.408Z,2.58
2022-09-03T20:55:07.981Z,2.97
2022-09-03T20:58:14.859Z,2.83
2022-09-03T21:01:03.526Z,2.80
2022-09-03T21:03:52.464Z,3.25
2022-09-03T21:06:32.098Z,3.50
2022-09-03T21:09:29.105Z,3.50
2022-09-03T21:12:20.059Z,3.30
2022-09-03T21:15:16.839Z,3.28
2022-09-03T21:18:10.523Z,2.85
2022-09-03T21:21:13.556Z,2.75
2022-09-03T21:23:46.802Z,3.10
2022-09-03T21:26:25.880Z,3.00
2022-09-03T21:29:21.535Z,2.95
2022-09-03T21:32:04.533Z,3.00
2022-09-03T21:34:43.607Z,3.55
2022-09-03T21:37:13.783Z,2.95
2022-09-03T21:39:44.723Z,3.40
2022-09-03T21:42:21.825Z,3.10
2022-09-03T21:45:07.789Z,2.67
2022-09-03T21:47:45.254Z,3.28
2022-09-03T21:50:20.139Z,2.67
2022-09-03T21:53:09.706Z,3.10
2022-09-03T21:56:16.105Z,2.75
2022-09-03T21:58:46.940Z,2.70
2022-09-03T22:03:53.504Z,2.67
2022-09-03T22:06:39.509Z,2.90
2022-09-03T22:09:13.945Z,2.80
2022-09-03T22:12:08.953Z,2.60
2022-09-03T22:14:44.483Z,2.42
2022-09-03T22:17:18.465Z,2.30
2022-09-03T22:19:47.017Z,2.80
2022-09-03T22:22:45.580Z,2.75
2022-09-03T22:25:30.122Z,2.58
2022-09-03T22:28:11.883Z,2.50
2022-09-03T22:31:04.307Z,2.47
2022-09-03T22:33:50.434Z,2.50
2022-09-03T22:36:28.156Z,2.63
2022-09-03T22:38:58.927Z,2.35
2022-09-03T22:41:52.996Z,2.47
2022-09-03T22:45:03.299Z,3.05
2022-09-03T22:47:40.598Z,2.40
2022-09-03T22:50:24.105Z,2.33
2022-09-03T22:53:19.725Z,2.70
2022-09-03T22:56:05.001Z,2.15
2022-09-03T22:58:48.273Z,2.50
2022-09-03T23:01:43.326Z,2.60
2022-09-03T23:05:19.469Z,2.60
2022-09-03T23:08:29.146Z,2.38
2022-09-03T23:11:34.204Z,2.42
2022-09-03T23:15:22.429Z,2.40
2022-09-03T23:18:17.731Z,2.90
2022-09-03T23:21:10.065Z,2.42
2022-09-03T23:23:45.841Z,2.70
2022-09-03T23:26:16.284Z,2.47
2022-09-03T23:31:20.077Z,3.13
2022-09-03T23:33:50.232Z,2.53
2022-09-03T23:37:22.336Z,2.55
2022-09-03T23:40:05.288Z,2.63
2022-09-03T23:42:50.432Z,2.50
2022-09-03T23:45:25.951Z,2.47
2022-09-03T23:48:03.094Z,2.47
2022-09-03T23:50:44.964Z,2.70
2022-09-03T23:53:38.999Z,2.60
2022-09-03T23:56:31.084Z,3.10
2022-09-03T23:59:32.869Z,2.10
